METAR Data
IDs: Format: Raw Decoded Include TAF

Data at: 0233 UTC 15 Aug 2020

FNLU 150100Z VRB03KT 8000 BKN020 22/19 Q1011

TAF FNLU 142300Z 1500/1606 18005KT 9000 FEW015 BKN020
  TEMPO 1503/1507 VRB03KT 6000
  BECMG 1511/1513 28010KT 9999
  TEMPO 1514/1518 CAVOK


No METAR found for FNCA

TAF FNCA 142300Z 1500/1512 19006KT 9999 FEW015 BKN020

No METAR found for FNBG

TAF FNBG 142300Z 1500/1512 VRB03KT 9999 BKN020
  BECMG 1510/1512 28008KT FEW020


No METAR found for FNHU

TAF FNHU 142300Z 1500/1512 08008KT CAVOK

No METAR found for FNUE

TAF FNUE 142300Z 1500/1512 13008KT CAVOK

No METAR found for FNGI

TAF FNGI 142300Z 1500/1512 08008KT CAVOK

No METAR found for FNUB

TAF FNUB 142300Z 1500/1512 16010KT CAVOK

No METAR found for FNMO

TAF FNMO 142300Z 1500/1512 32010KT 9999 BKN018
  TEMPO 1503/1508 21006KT 4000 BR OVC008


No METAR found for FNUG
No TAF found for FNUG

No METAR found for FNMA

TAF FNMA 142300Z 1500/1512 VRB03KT 9999 BKN015
  PROB30
  TEMPO 1503/1507 5000 BR
  TEMPO 1508/1512 15008KT


No METAR found for FNSA

TAF FNSA 142300Z 1500/1512 14008KT CAVOK

No METAR found for FNSO

TAF FNSO 142300Z 1500/1512 22008KT 9999 SCT015 BKN040
  PROB30
  TEMPO 1503/1507 5000 BR


No METAR found for FNBC
No TAF found for FNBC

No METAR found for FNSU
No TAF found for FNSU

No METAR found for FNDU

TAF FNDU 142300Z 1500/1512 VRB03KT 8000 NSC
  PROB40
  TEMPO 1501/1506 3000 BR
  TEMPO 1507/1512 5000 HZ


No METAR found for FNME

TAF FNME 142300Z 1500/1512 06008KT CAVOK

No METAR found for FNCT

TAF FNCT 142300Z 1500/1512 VRB03KT 9999 BKN020
  BECMG 1510/1512 29010KT CAVOK


No METAR found for FNKU

TAF FNKU 142300Z 1500/1512 21008KT CAVOK